createdAt,value
2023-11-01T00:02:27.792Z,13.40
2023-11-01T00:04:55.852Z,13.50
2023-11-01T00:07:23.909Z,13.50
2023-11-01T00:09:51.945Z,13.50
2023-11-01T00:12:20.076Z,13.60
2023-11-01T00:14:48.151Z,13.50
2023-11-01T00:17:17.800Z,13.40
2023-11-01T00:19:45.865Z,13.60
2023-11-01T00:22:13.952Z,13.50
2023-11-01T00:24:44.538Z,13.60
2023-11-01T00:27:12.897Z,13.60
2023-11-01T00:29:41.123Z,13.60
2023-11-01T00:32:09.690Z,13.50
2023-11-01T00:34:39.156Z,13.50
2023-11-01T00:37:07.577Z,13.50
2023-11-01T00:39:35.663Z,13.50
2023-11-01T00:42:03.720Z,13.50
2023-11-01T00:44:31.716Z,13.50
2023-11-01T00:46:59.765Z,13.50
2023-11-01T00:49:27.783Z,13.40
2023-11-01T00:51:57.225Z,13.50
2023-11-01T00:54:25.398Z,13.30
2023-11-01T00:56:53.419Z,13.40
2023-11-01T00:59:21.662Z,13.40
2023-11-01T01:01:49.742Z,13.40
2023-11-01T01:04:17.861Z,13.30
2023-11-01T01:06:45.881Z,13.30
2023-11-01T01:09:15.303Z,13.30
2023-11-01T01:11:43.331Z,13.30
2023-11-01T01:14:11.440Z,13.30
2023-11-01T01:16:39.477Z,13.30
2023-11-01T01:19:07.902Z,13.30
2023-11-01T01:21:35.957Z,13.50
2023-11-01T01:24:05.021Z,13.40
2023-11-01T01:26:34.559Z,13.40
2023-11-01T01:29:02.709Z,13.40
2023-11-01T01:31:35.360Z,13.40
2023-11-01T01:34:03.739Z,13.30
2023-11-01T01:36:34.265Z,13.30
2023-11-01T01:39:02.371Z,13.40
2023-11-01T01:41:30.691Z,13.30
2023-11-01T01:44:00.283Z,13.30
2023-11-01T01:46:30.721Z,13.40
2023-11-01T01:49:00.106Z,13.30
2023-11-01T01:51:28.998Z,13.30
2023-11-01T01:53:58.018Z,13.30
2023-11-01T01:56:27.491Z,13.30
2023-11-01T01:58:55.857Z,13.30
2023-11-01T02:01:38.755Z,13.30
2023-11-01T02:04:11.369Z,13.30
2023-11-01T02:06:39.457Z,13.30
2023-11-01T02:09:16.679Z,13.30
2023-11-01T02:11:46.217Z,13.20
2023-11-01T02:14:14.719Z,13.20
2023-11-01T02:16:44.353Z,13.20
2023-11-01T02:19:18.137Z,13.20
2023-11-01T02:21:46.260Z,13.20
2023-11-01T02:24:15.939Z,13.20
2023-11-01T02:26:44.050Z,13.20
2023-11-01T02:29:12.854Z,13.20
2023-11-01T02:31:42.693Z,13.10
2023-11-01T02:34:10.823Z,13.20
2023-11-01T02:36:38.929Z,13.20
2023-11-01T02:39:09.304Z,13.20
2023-11-01T02:41:40.302Z,13.20
2023-11-01T02:44:09.876Z,13.30
2023-11-01T02:46:38.180Z,13.10
2023-11-01T02:49:06.502Z,13.20
2023-11-01T02:51:34.792Z,13.20
2023-11-01T02:54:02.891Z,13.20
2023-11-01T02:56:31.460Z,13.20
2023-11-01T02:59:00.876Z,13.20
2023-11-01T03:01:28.806Z,13.20
2023-11-01T03:03:56.874Z,13.20
2023-11-01T03:06:25.082Z,13.20
2023-11-01T03:08:53.447Z,13.20
2023-11-01T03:11:21.743Z,13.20
2023-11-01T03:13:49.821Z,13.20
2023-11-01T03:16:19.737Z,13.20
2023-11-01T03:18:47.683Z,13.20
2023-11-01T03:21:15.751Z,13.30
2023-11-01T03:23:43.688Z,13.20
2023-11-01T03:26:12.451Z,13.30
2023-11-01T03:28:40.564Z,13.20
2023-11-01T03:31:08.966Z,13.30
2023-11-01T03:33:38.495Z,13.30
2023-11-01T03:36:08.943Z,13.30
2023-11-01T03:38:36.977Z,13.30
2023-11-01T03:41:05.685Z,13.20
2023-11-01T03:43:35.116Z,13.30
2023-11-01T03:46:03.197Z,13.20
2023-11-01T03:48:34.271Z,13.30
2023-11-01T03:51:03.959Z,13.30
2023-11-01T03:53:32.778Z,13.30
2023-11-01T03:56:00.831Z,13.30
2023-11-01T03:58:29.013Z,13.30
2023-11-01T04:00:58.186Z,13.30
2023-11-01T04:03:27.720Z,13.30
2023-11-01T04:05:56.166Z,13.30
2023-11-01T04:08:25.783Z,13.30
2023-11-01T04:10:53.767Z,13.30
2023-11-01T04:13:21.833Z,13.20
2023-11-01T04:15:49.850Z,13.30
2023-11-01T04:18:18.190Z,13.30
2023-11-01T04:20:46.485Z,13.30
2023-11-01T04:23:14.672Z,13.40
2023-11-01T04:25:44.228Z,13.30
2023-11-01T04:28:12.180Z,13.30
2023-11-01T04:30:41.763Z,13.30
2023-11-01T04:33:11.794Z,13.50
2023-11-01T04:35:40.331Z,13.20
2023-11-01T04:38:08.778Z,13.40
2023-11-01T04:40:36.805Z,13.40
2023-11-01T04:43:08.668Z,13.40
2023-11-01T04:45:36.748Z,13.40
2023-11-01T04:48:05.223Z,13.50
2023-11-01T04:50:34.654Z,13.50
2023-11-01T04:53:03.280Z,13.50
2023-11-01T04:55:31.462Z,13.50
2023-11-01T04:57:59.712Z,13.60
2023-11-01T05:00:29.186Z,13.60
2023-11-01T05:03:00.500Z,13.60
2023-11-01T05:05:30.725Z,13.70
2023-11-01T05:07:59.103Z,13.70
2023-11-01T05:10:27.361Z,13.70
2023-11-01T05:12:55.755Z,13.80
2023-11-01T05:15:23.796Z,13.80
2023-11-01T05:17:54.533Z,13.80
2023-11-01T05:20:22.624Z,13.80
2023-11-01T05:22:50.639Z,13.80
2023-11-01T05:25:18.697Z,13.90
2023-11-01T05:27:47.232Z,13.80
2023-11-01T05:30:18.567Z,14.00
2023-11-01T05:32:47.803Z,13.90
2023-11-01T05:35:18.349Z,13.90
2023-11-01T05:37:46.876Z,14.00
2023-11-01T05:40:18.384Z,14.00
2023-11-01T05:42:47.800Z,14.00
2023-11-01T05:45:18.642Z,14.00
2023-11-01T05:47:54.850Z,14.00
2023-11-01T05:50:26.921Z,14.00
2023-11-01T05:52:57.039Z,14.10
2023-11-01T05:55:33.235Z,14.00
2023-11-01T05:58:08.569Z,14.00
2023-11-01T06:00:37.482Z,14.00
2023-11-01T06:03:08.366Z,14.10
2023-11-01T06:05:40.149Z,14.10
2023-11-01T06:08:10.290Z,14.00
2023-11-01T06:10:39.007Z,14.10
2023-11-01T06:13:09.366Z,14.10
2023-11-01T06:15:38.476Z,14.10
2023-11-01T06:18:07.787Z,14.10
2023-11-01T06:20:38.379Z,14.10
2023-11-01T06:23:09.494Z,14.10
2023-11-01T06:25:38.194Z,14.10
2023-11-01T06:28:06.734Z,14.10
2023-11-01T06:30:35.294Z,14.10
2023-11-01T06:33:04.275Z,14.10
2023-11-01T06:35:32.554Z,14.10
2023-11-01T06:38:05.336Z,14.10
2023-11-01T06:40:33.455Z,14.10
2023-11-01T06:43:01.516Z,14.20
2023-11-01T06:45:29.662Z,14.10
2023-11-01T06:47:58.034Z,14.10
2023-11-01T06:50:26.181Z,14.10
2023-11-01T06:52:54.415Z,14.10
2023-11-01T06:55:24.220Z,14.10
2023-11-01T06:57:52.717Z,14.20
2023-11-01T07:00:22.400Z,14.10
2023-11-01T07:02:50.667Z,14.10
2023-11-01T07:05:18.956Z,14.20
2023-11-01T07:07:47.160Z,14.10
2023-11-01T07:10:15.486Z,14.10
2023-11-01T07:12:45.044Z,14.10
2023-11-01T07:15:13.325Z,14.20
2023-11-01T07:17:41.791Z,14.10
2023-11-01T07:20:11.166Z,14.10
2023-11-01T07:22:39.310Z,13.90
2023-11-01T07:25:07.840Z,14.10
2023-11-01T07:27:35.882Z,14.10
2023-11-01T07:30:08.313Z,14.10
2023-11-01T07:32:40.097Z,14.10
2023-11-01T07:35:08.869Z,14.10
2023-11-01T07:37:37.160Z,14.10
2023-11-01T07:40:06.455Z,14.10
2023-11-01T07:42:34.615Z,14.10
2023-11-01T07:45:04.469Z,14.20
2023-11-01T07:47:32.624Z,14.20
2023-11-01T07:50:01.090Z,14.20
2023-11-01T07:52:29.142Z,14.20
2023-11-01T07:55:09.859Z,14.20
2023-11-01T07:57:38.217Z,14.20
2023-11-01T08:00:09.478Z,14.20
2023-11-01T08:02:38.121Z,14.20
2023-11-01T08:05:07.081Z,14.20
2023-11-01T08:07:35.527Z,14.20
2023-11-01T08:10:03.526Z,14.30
2023-11-01T08:12:31.547Z,14.30
2023-11-01T08:14:59.530Z,14.30
2023-11-01T08:17:29.074Z,14.30
2023-11-01T08:19:57.091Z,14.30
2023-11-01T08:22:25.274Z,14.40
2023-11-01T08:24:54.400Z,14.40
2023-11-01T08:27:22.731Z,14.40
2023-11-01T08:29:50.702Z,14.50
2023-11-01T08:32:18.806Z,14.60
2023-11-01T08:34:48.258Z,14.50
2023-11-01T08:37:16.329Z,14.50
2023-11-01T08:39:44.573Z,14.60
2023-11-01T08:42:12.745Z,14.60
2023-11-01T08:44:40.850Z,14.60
2023-11-01T08:47:10.691Z,14.60
2023-11-01T08:49:38.863Z,14.60
2023-11-01T08:52:12.328Z,14.60
2023-11-01T08:54:41.951Z,14.60
2023-11-01T08:57:09.993Z,14.70
2023-11-01T08:59:38.241Z,14.70
2023-11-01T09:02:10.604Z,14.70
2023-11-01T09:04:43.800Z,14.70
2023-11-01T09:07:13.397Z,14.70
2023-11-01T09:09:41.798Z,14.80
2023-11-01T09:12:10.857Z,14.80
2023-11-01T09:14:39.780Z,15.00
2023-11-01T09:17:09.029Z,15.20
2023-11-01T09:19:37.171Z,15.10
2023-11-01T09:22:07.692Z,15.10
2023-11-01T09:24:37.328Z,15.10
2023-11-01T09:27:06.425Z,15.10
2023-11-01T09:29:34.488Z,15.10
2023-11-01T09:32:02.667Z,15.20
2023-11-01T09:34:33.567Z,15.20
2023-11-01T09:37:01.817Z,15.20
2023-11-01T09:39:31.292Z,15.20
2023-11-01T09:42:05.178Z,15.20
2023-11-01T09:44:33.284Z,15.20
2023-11-01T09:47:03.457Z,15.30
2023-11-01T09:49:33.026Z,15.30
2023-11-01T09:52:05.586Z,15.30
2023-11-01T09:54:33.582Z,15.40
2023-11-01T09:57:05.343Z,15.20
2023-11-01T09:59:34.181Z,15.20
2023-11-01T10:02:03.648Z,15.20
2023-11-01T10:04:32.166Z,15.30
2023-11-01T10:07:00.863Z,15.30
2023-11-01T10:09:30.929Z,15.30
2023-11-01T10:11:59.727Z,15.30
2023-11-01T10:14:30.528Z,15.30
2023-11-01T10:16:59.724Z,15.30
2023-11-01T10:19:28.594Z,15.30
2023-11-01T10:21:57.761Z,15.30
2023-11-01T10:24:27.426Z,15.30
2023-11-01T10:26:56.803Z,15.40
2023-11-01T10:29:25.831Z,15.40
2023-11-01T10:31:56.187Z,15.40
2023-11-01T10:34:29.913Z,15.50
2023-11-01T10:36:59.039Z,15.50
2023-11-01T10:39:29.273Z,15.60
2023-11-01T10:41:58.199Z,15.50
2023-11-01T10:44:27.446Z,15.60
2023-11-01T10:46:58.376Z,15.60
2023-11-01T10:49:28.256Z,15.60
2023-11-01T10:51:57.429Z,15.60
2023-11-01T10:54:26.227Z,15.60
2023-11-01T10:56:54.620Z,15.60
2023-11-01T10:59:32.116Z,15.70
2023-11-01T11:02:09.889Z,15.60
2023-11-01T11:04:46.005Z,15.60
2023-11-01T11:07:24.398Z,15.60
2023-11-01T11:10:25.051Z,15.60
2023-11-01T11:13:39.217Z,15.60
2023-11-01T11:16:09.859Z,15.70
2023-11-01T11:19:00.766Z,15.80
2023-11-01T11:22:04.309Z,15.80
2023-11-01T11:24:58.454Z,15.80
2023-11-01T11:27:51.133Z,15.80
2023-11-01T11:31:08.268Z,15.90
2023-11-01T11:33:37.541Z,15.90
2023-11-01T11:36:15.716Z,16.00
2023-11-01T11:38:52.833Z,16.00
2023-11-01T11:41:22.458Z,16.10
2023-11-01T11:44:08.529Z,16.10
2023-11-01T11:46:39.675Z,16.10
2023-11-01T11:49:08.758Z,16.20
2023-11-01T11:51:38.898Z,16.20
2023-11-01T11:54:17.128Z,16.20
2023-11-01T11:56:45.600Z,16.30
2023-11-01T11:59:20.214Z,16.40
2023-11-01T12:01:49.329Z,16.40
2023-11-01T12:04:18.118Z,16.50
2023-11-01T12:06:48.914Z,16.50
2023-11-01T12:09:19.026Z,16.40
2023-11-01T12:11:48.664Z,16.50
2023-11-01T12:14:21.266Z,16.50
2023-11-01T12:16:49.473Z,16.40
2023-11-01T12:19:21.508Z,16.50
2023-11-01T12:21:52.945Z,16.40
2023-11-01T12:24:22.960Z,16.40
2023-11-01T12:27:08.114Z,16.30
2023-11-01T12:29:37.804Z,16.40
2023-11-01T12:32:07.928Z,16.40
2023-11-01T12:34:36.833Z,16.40
2023-11-01T12:37:07.730Z,16.30
2023-11-01T12:39:36.623Z,16.40
2023-11-01T12:42:27.388Z,16.50
2023-11-01T12:44:56.905Z,16.50
2023-11-01T12:47:28.349Z,16.50
2023-11-01T12:49:59.940Z,16.60
2023-11-01T12:52:29.417Z,16.60
2023-11-01T12:54:57.586Z,16.60
2023-11-01T12:57:25.890Z,16.60
2023-11-01T12:59:54.004Z,16.50
2023-11-01T13:02:22.034Z,16.60
2023-11-01T13:04:50.240Z,16.50
2023-11-01T13:07:18.679Z,16.60
2023-11-01T13:09:48.052Z,16.60
2023-11-01T13:12:16.038Z,16.70
2023-11-01T13:14:44.114Z,16.60
2023-11-01T13:17:12.153Z,16.60
2023-11-01T13:19:42.301Z,16.50
2023-11-01T13:22:10.420Z,16.40
2023-11-01T13:24:38.396Z,16.50
2023-11-01T13:27:11.355Z,16.50
2023-11-01T13:29:40.143Z,16.50
2023-11-01T13:32:08.934Z,16.50
2023-11-01T13:34:37.589Z,16.50
2023-11-01T13:37:07.693Z,16.40
2023-11-01T13:39:36.182Z,16.40
2023-11-01T13:42:06.688Z,16.40
2023-11-01T13:44:36.113Z,16.40
2023-11-01T13:47:04.310Z,16.30
2023-11-01T13:49:33.812Z,16.20
2023-11-01T13:52:01.769Z,16.20
2023-11-01T13:54:29.769Z,16.20
2023-11-01T13:56:57.768Z,16.20
2023-11-01T13:59:25.806Z,16.20
2023-11-01T14:01:56.460Z,16.10
2023-11-01T14:04:24.712Z,16.00
2023-11-01T14:06:52.870Z,16.00
2023-11-01T14:09:21.311Z,16.10
2023-11-01T14:11:52.908Z,16.00
2023-11-01T14:14:22.456Z,16.00
2023-11-01T14:16:50.761Z,15.90
2023-11-01T14:19:20.196Z,15.90
2023-11-01T14:21:48.753Z,15.90
2023-11-01T14:24:19.414Z,15.80
2023-11-01T14:26:48.908Z,15.80
2023-11-01T14:29:17.590Z,15.70
2023-11-01T14:31:45.764Z,15.70
2023-11-01T14:34:14.129Z,15.60
2023-11-01T14:36:44.268Z,15.60
2023-11-01T14:39:14.351Z,15.50
2023-11-01T14:41:42.730Z,15.40
2023-11-01T14:44:11.141Z,15.30
2023-11-01T14:46:39.400Z,15.30
2023-11-01T14:49:08.708Z,15.20
2023-11-01T14:51:36.698Z,15.20
2023-11-01T14:54:06.979Z,15.20
2023-11-01T14:56:35.037Z,15.20
2023-11-01T14:59:03.148Z,15.10
2023-11-01T15:01:33.890Z,15.30
2023-11-01T15:04:03.511Z,15.00
2023-11-01T15:06:35.690Z,15.00
2023-11-01T15:09:06.004Z,15.20
2023-11-01T15:11:35.138Z,15.10
2023-11-01T15:14:03.382Z,15.00
2023-11-01T15:16:32.735Z,14.90
2023-11-01T15:19:00.973Z,15.00
2023-11-01T15:21:29.713Z,14.90
2023-11-01T15:23:58.553Z,14.90
2023-11-01T15:26:34.655Z,14.90
2023-11-01T15:29:03.062Z,14.90
2023-11-01T15:31:31.414Z,14.80
2023-11-01T15:34:00.239Z,14.80
2023-11-01T15:36:28.328Z,14.80
2023-11-01T15:38:56.330Z,14.70
2023-11-01T15:41:24.974Z,14.60
2023-11-01T15:43:57.548Z,14.70
2023-11-01T15:46:26.514Z,14.70
2023-11-01T15:48:54.611Z,14.70
2023-11-01T15:51:24.169Z,14.70
2023-11-01T15:53:52.418Z,14.60
2023-11-01T15:56:20.450Z,14.70
2023-11-01T15:58:48.605Z,14.60
2023-11-01T16:01:20.779Z,14.70
2023-11-01T16:03:49.301Z,14.50
2023-11-01T16:06:17.636Z,14.50
2023-11-01T16:08:46.356Z,14.40
2023-11-01T16:11:16.844Z,14.40
2023-11-01T16:13:44.809Z,14.40
2023-11-01T16:16:12.924Z,14.30
2023-11-01T16:18:42.742Z,14.30
2023-11-01T16:21:10.989Z,14.20
2023-11-01T16:23:39.095Z,14.20
2023-11-01T16:26:07.558Z,14.30
2023-11-01T16:28:35.743Z,14.20
2023-11-01T16:31:04.273Z,14.20
2023-11-01T16:33:32.464Z,14.20
2023-11-01T16:36:02.043Z,14.10
2023-11-01T16:38:30.256Z,14.10
2023-11-01T16:40:58.237Z,14.10
2023-11-01T16:43:26.344Z,14.10
2023-11-01T16:45:54.311Z,14.10
2023-11-01T16:48:22.462Z,14.10
2023-11-01T16:50:50.632Z,13.90
2023-11-01T16:53:20.185Z,14.00
2023-11-01T16:55:48.317Z,14.00
2023-11-01T16:58:16.988Z,14.00
2023-11-01T17:00:45.042Z,14.00
2023-11-01T17:03:13.231Z,14.00
2023-11-01T17:05:41.310Z,14.00
2023-11-01T17:08:09.744Z,14.10
2023-11-01T17:10:39.141Z,14.00
2023-11-01T17:13:10.059Z,14.00
2023-11-01T17:15:41.703Z,14.00
2023-11-01T17:18:10.302Z,14.00
2023-11-01T17:20:38.358Z,14.00
2023-11-01T17:23:09.595Z,14.00
2023-11-01T17:26:11.309Z,13.90
2023-11-01T17:28:42.670Z,13.90
2023-11-01T17:31:14.742Z,13.90
2023-11-01T17:33:48.105Z,13.80
2023-11-01T17:36:28.203Z,13.80
2023-11-01T17:38:57.345Z,13.80
2023-11-01T17:42:02.060Z,13.70
2023-11-01T17:44:38.474Z,13.80
2023-11-01T17:47:08.178Z,13.80
2023-11-01T17:49:54.496Z,13.70
2023-11-01T17:52:29.070Z,13.70
2023-11-01T17:54:58.055Z,13.70
2023-11-01T17:57:28.135Z,13.70
2023-11-01T18:00:00.839Z,13.60
2023-11-01T18:03:01.681Z,13.60
2023-11-01T18:05:39.113Z,13.60
2023-11-01T18:08:10.614Z,13.60
2023-11-01T18:10:43.380Z,13.60
2023-11-01T18:13:23.647Z,13.60
2023-11-01T18:15:55.164Z,13.50
2023-11-01T18:18:38.170Z,13.50
2023-11-01T18:21:09.207Z,13.50
2023-11-01T18:23:37.887Z,13.50
2023-11-01T18:26:10.876Z,13.40
2023-11-01T18:28:43.261Z,13.40
2023-11-01T18:31:17.045Z,13.40
2023-11-01T18:33:51.560Z,13.30
2023-11-01T18:36:19.917Z,13.30
2023-11-01T18:38:50.289Z,13.30
2023-11-01T18:41:18.699Z,13.30
2023-11-01T18:43:46.710Z,13.30
2023-11-01T18:46:16.394Z,13.20
2023-11-01T18:48:45.038Z,13.30
2023-11-01T18:51:43.638Z,13.30
2023-11-01T18:54:11.722Z,13.20
2023-11-01T18:56:42.039Z,13.20
2023-11-01T18:59:10.828Z,13.20
2023-11-01T19:01:43.722Z,13.20
2023-11-01T19:04:13.715Z,13.10
2023-11-01T19:06:43.881Z,13.10
2023-11-01T19:09:13.192Z,13.10
2023-11-01T19:11:42.039Z,13.10
2023-11-01T19:14:10.094Z,13.10
2023-11-01T19:16:38.117Z,13.00
2023-11-01T19:19:07.784Z,13.00
2023-11-01T19:21:35.794Z,12.90
2023-11-01T19:24:04.455Z,12.90
2023-11-01T19:26:33.017Z,12.90
2023-11-01T19:29:01.320Z,12.90
2023-11-01T19:31:29.508Z,12.90
2023-11-01T19:33:58.037Z,12.80
2023-11-01T19:36:28.650Z,12.80
2023-11-01T19:38:57.482Z,12.80
2023-11-01T19:41:25.790Z,12.70
2023-11-01T19:43:59.350Z,12.80
2023-11-01T19:46:27.884Z,12.80
2023-11-01T19:48:56.126Z,12.70
2023-11-01T19:51:24.233Z,12.70
2023-11-01T19:53:54.225Z,12.70
2023-11-01T19:56:23.100Z,12.70
2023-11-01T19:58:51.548Z,12.70
2023-11-01T20:01:23.410Z,12.60
2023-11-01T20:03:52.537Z,12.70
2023-11-01T20:06:21.798Z,12.60
2023-11-01T20:08:50.884Z,12.60
2023-11-01T20:11:20.658Z,12.60
2023-11-01T20:13:50.246Z,12.60
2023-11-01T20:16:25.572Z,12.70
2023-11-01T20:18:58.955Z,12.50
2023-11-01T20:21:27.123Z,12.50
2023-11-01T20:23:55.132Z,12.50
2023-11-01T20:26:25.723Z,12.50
2023-11-01T20:28:53.704Z,12.50
2023-11-01T20:31:21.681Z,12.40
2023-11-01T20:33:50.904Z,12.40
2023-11-01T20:36:19.258Z,12.20
2023-11-01T20:38:47.459Z,12.30
2023-11-01T20:41:16.190Z,12.20
2023-11-01T20:43:45.593Z,12.30
2023-11-01T20:46:14.110Z,12.20
2023-11-01T20:48:42.881Z,12.20
2023-11-01T20:51:13.948Z,12.30
2023-11-01T20:53:43.192Z,12.20
2023-11-01T20:56:11.574Z,12.30
2023-11-01T20:58:39.614Z,12.10
2023-11-01T21:01:10.582Z,12.20
2023-11-01T21:03:38.763Z,12.10
2023-11-01T21:06:08.397Z,12.10
2023-11-01T21:08:36.431Z,12.10
2023-11-01T21:11:04.940Z,12.10
2023-11-01T21:13:32.945Z,12.00
2023-11-01T21:16:02.167Z,12.10
2023-11-01T21:18:32.942Z,12.00
2023-11-01T21:21:03.960Z,12.00
2023-11-01T21:23:34.918Z,11.90
2023-11-01T21:26:02.913Z,11.90
2023-11-01T21:28:31.000Z,11.90
2023-11-01T21:30:59.896Z,11.90
2023-11-01T21:33:28.042Z,11.90
2023-11-01T21:35:57.797Z,12.00
2023-11-01T21:38:26.234Z,11.90
2023-11-01T21:40:54.306Z,12.00
2023-11-01T21:43:22.431Z,11.90
2023-11-01T21:45:52.192Z,11.80
2023-11-01T21:48:23.573Z,11.90
2023-11-01T21:50:59.425Z,11.80
2023-11-01T21:53:31.246Z,11.80
2023-11-01T21:56:07.484Z,11.90
2023-11-01T21:58:36.926Z,11.80
2023-11-01T22:01:07.563Z,12.00
2023-11-01T22:03:42.316Z,11.80
2023-11-01T22:06:14.374Z,11.80
2023-11-01T22:09:00.533Z,11.80
2023-11-01T22:11:30.767Z,11.80
2023-11-01T22:13:59.858Z,11.70
2023-11-01T22:16:32.777Z,11.70
2023-11-01T22:19:02.115Z,11.70
2023-11-01T22:21:35.882Z,11.80
2023-11-01T22:24:04.855Z,11.70
2023-11-01T22:26:33.580Z,11.70
2023-11-01T22:29:03.409Z,11.70
2023-11-01T22:31:50.672Z,11.70
2023-11-01T22:34:19.694Z,11.70
2023-11-01T22:36:50.576Z,11.80
2023-11-01T22:39:41.220Z,11.70
2023-11-01T22:42:11.586Z,11.80
2023-11-01T22:44:39.961Z,11.80
2023-11-01T22:47:08.082Z,11.80
2023-11-01T22:49:36.035Z,11.80
2023-11-01T22:52:06.428Z,11.80
2023-11-01T22:54:34.389Z,11.70
2023-11-01T22:57:02.475Z,11.70
2023-11-01T22:59:30.598Z,11.60
2023-11-01T23:01:58.867Z,11.70
2023-11-01T23:04:27.190Z,11.70
2023-11-01T23:06:55.258Z,11.70
2023-11-01T23:09:24.804Z,11.60
2023-11-01T23:11:53.551Z,11.70
2023-11-01T23:14:21.634Z,11.60
2023-11-01T23:16:50.785Z,11.60
2023-11-01T23:19:19.554Z,11.70
2023-11-01T23:21:47.632Z,11.60
2023-11-01T23:24:16.997Z,11.60
2023-11-01T23:26:56.514Z,11.70
2023-11-01T23:29:27.330Z,11.70
2023-11-01T23:31:55.714Z,11.70
2023-11-01T23:34:43.455Z,11.60
2023-11-01T23:37:22.939Z,11.60
2023-11-01T23:39:52.288Z,11.70
2023-11-01T23:42:22.181Z,11.70
2023-11-01T23:44:53.419Z,11.70
2023-11-01T23:47:38.921Z,11.70
2023-11-01T23:50:13.510Z,11.70
2023-11-01T23:52:42.503Z,11.70
2023-11-01T23:55:10.714Z,11.70
2023-11-01T23:57:41.050Z,11.70
